createdAt,value
2018-07-28T00:00:15.552Z,19.20
2018-07-28T00:02:46.073Z,19.10
2018-07-28T00:05:16.835Z,19.00
2018-07-28T00:10:17.505Z,19.00
2018-07-28T00:12:48.202Z,19.00
2018-07-28T00:15:18.871Z,18.90
2018-07-28T00:17:49.524Z,18.90
2018-07-28T00:20:20.510Z,18.80
2018-07-28T00:22:51.309Z,18.80
2018-07-28T00:25:21.793Z,18.80
2018-07-28T00:27:52.263Z,18.70
2018-07-28T00:30:23.176Z,18.70
2018-07-28T00:32:53.628Z,18.60
2018-07-28T00:35:24.324Z,18.60
2018-07-28T00:37:54.935Z,18.60
2018-07-28T00:40:25.544Z,18.50
2018-07-28T00:42:56.059Z,18.50
2018-07-28T00:45:26.543Z,18.50
2018-07-28T00:47:56.923Z,18.50
2018-07-28T00:50:27.533Z,18.40
2018-07-28T00:52:58.026Z,18.40
2018-07-28T00:55:28.539Z,18.40
2018-07-28T00:57:59.024Z,18.30
2018-07-28T01:00:29.671Z,18.30
2018-07-28T01:03:00.118Z,18.30
2018-07-28T01:08:00.844Z,18.20
2018-07-28T01:10:31.520Z,18.20
2018-07-28T01:13:02.159Z,18.20
2018-07-28T01:15:32.700Z,18.20
2018-07-28T01:18:03.412Z,18.20
2018-07-28T01:20:33.933Z,18.20
2018-07-28T01:23:04.323Z,18.10
2018-07-28T01:25:34.908Z,18.00
2018-07-28T01:28:05.494Z,18.00
2018-07-28T01:30:36.056Z,17.90
2018-07-28T01:33:06.565Z,17.90
2018-07-28T01:35:37.159Z,18.00
2018-07-28T01:38:07.608Z,17.90
2018-07-28T01:40:38.150Z,17.80
2018-07-28T01:43:08.644Z,17.80
2018-07-28T01:45:39.236Z,17.70
2018-07-28T01:48:09.759Z,17.80
2018-07-28T01:50:40.256Z,17.80
2018-07-28T01:53:10.982Z,17.70
2018-07-28T01:55:41.599Z,17.70
2018-07-28T01:58:12.188Z,17.70
2018-07-28T02:00:42.695Z,17.60
2018-07-28T02:03:13.211Z,17.60
2018-07-28T02:05:43.657Z,17.60
2018-07-28T02:08:14.119Z,17.60
2018-07-28T02:10:44.832Z,17.50
2018-07-28T02:13:15.295Z,17.50
2018-07-28T02:15:45.882Z,17.40
2018-07-28T02:18:16.758Z,17.40
2018-07-28T02:23:17.714Z,17.40
2018-07-28T02:25:48.284Z,17.40
2018-07-28T02:28:18.720Z,17.40
2018-07-28T02:30:49.493Z,17.40
2018-07-28T02:33:20.275Z,17.40
2018-07-28T02:35:50.896Z,17.40
2018-07-28T02:38:21.392Z,17.40
2018-07-28T02:40:52.084Z,17.30
2018-07-28T02:43:22.572Z,17.30
2018-07-28T02:45:53.195Z,17.30
2018-07-28T02:48:23.960Z,17.20
2018-07-28T02:50:54.915Z,17.30
2018-07-28T02:53:25.510Z,17.30
2018-07-28T02:55:56.228Z,17.20
2018-07-28T02:58:26.793Z,17.20
2018-07-28T03:00:57.300Z,17.10
2018-07-28T03:03:27.700Z,17.10
2018-07-28T03:05:58.292Z,17.10
2018-07-28T03:08:28.731Z,17.10
2018-07-28T03:10:59.396Z,17.10
2018-07-28T03:13:29.863Z,17.00
2018-07-28T03:16:00.293Z,17.00
2018-07-28T03:18:31.188Z,17.00
2018-07-28T03:21:01.772Z,17.00
2018-07-28T03:23:32.434Z,17.00
2018-07-28T03:26:03.120Z,17.00
2018-07-28T03:28:33.753Z,17.00
2018-07-28T03:31:04.433Z,17.00
2018-07-28T03:33:34.971Z,17.00
2018-07-28T03:36:05.795Z,16.90
2018-07-28T03:38:36.450Z,16.80
2018-07-28T03:41:07.407Z,16.70
2018-07-28T03:43:38.056Z,16.60
2018-07-28T03:46:08.892Z,16.70
2018-07-28T03:48:39.391Z,16.70
2018-07-28T03:51:10.056Z,16.70
2018-07-28T03:53:40.681Z,16.60
2018-07-28T03:56:11.002Z,16.50
2018-07-28T03:58:41.491Z,16.60
2018-07-28T04:01:12.029Z,16.60
2018-07-28T04:03:42.620Z,16.60
2018-07-28T04:06:13.232Z,16.60
2018-07-28T04:08:43.859Z,16.70
2018-07-28T04:11:14.424Z,16.70
2018-07-28T04:13:45.016Z,16.70
2018-07-28T04:16:15.648Z,16.70
2018-07-28T04:18:46.530Z,16.80
2018-07-28T04:21:17.296Z,16.80
2018-07-28T04:23:47.984Z,16.80
2018-07-28T04:26:18.429Z,16.80
2018-07-28T04:28:48.869Z,16.90
2018-07-28T04:31:19.482Z,16.90
2018-07-28T04:33:50.039Z,16.90
2018-07-28T04:36:20.523Z,16.90
2018-07-28T04:38:51.045Z,17.00
2018-07-28T04:41:21.548Z,17.00
2018-07-28T04:43:52.121Z,17.10
2018-07-28T04:46:22.547Z,17.20
2018-07-28T04:48:52.971Z,17.20
2018-07-28T04:51:23.712Z,17.40
2018-07-28T04:53:54.200Z,17.50
2018-07-28T04:56:25.143Z,17.60
2018-07-28T04:58:55.796Z,17.70
2018-07-28T05:01:26.484Z,17.80
2018-07-28T05:03:57.268Z,17.90
2018-07-28T05:06:27.745Z,17.90
2018-07-28T05:08:58.327Z,17.90
2018-07-28T05:11:28.869Z,18.00
2018-07-28T05:13:59.416Z,18.20
2018-07-28T05:16:29.832Z,18.60
2018-07-28T05:19:00.276Z,19.00
2018-07-28T05:21:30.904Z,19.40
2018-07-28T05:24:01.520Z,19.70
2018-07-28T05:26:32.062Z,20.20
2018-07-28T05:29:02.527Z,20.90
2018-07-28T05:31:32.963Z,21.90
2018-07-28T05:34:03.427Z,23.00
2018-07-28T05:36:34.064Z,23.80
2018-07-28T05:39:06.967Z,23.40
2018-07-28T05:41:37.706Z,23.20
2018-07-28T05:44:08.407Z,23.40
2018-07-28T05:46:39.079Z,24.50
2018-07-28T05:49:09.604Z,25.60
2018-07-28T05:51:40.143Z,25.30
2018-07-28T05:54:10.828Z,24.90
2018-07-28T05:56:41.279Z,25.10
2018-07-28T05:59:11.722Z,25.20
2018-07-28T06:01:42.440Z,25.80
2018-07-28T06:04:13.118Z,26.30
2018-07-28T06:06:43.653Z,26.80
2018-07-28T06:11:44.307Z,27.10
2018-07-28T06:14:14.768Z,27.50
2018-07-28T06:16:45.282Z,27.80
2018-07-28T06:19:15.704Z,29.10
2018-07-28T06:21:46.187Z,29.60
2018-07-28T06:24:16.657Z,31.80
2018-07-28T06:26:47.196Z,32.50
2018-07-28T06:29:17.776Z,32.90
2018-07-28T06:31:48.592Z,32.90
2018-07-28T06:34:19.123Z,33.90
2018-07-28T06:36:49.737Z,33.30
2018-07-28T06:41:50.444Z,31.30
2018-07-28T06:44:20.746Z,30.10
2018-07-28T06:46:51.290Z,28.90
2018-07-28T06:49:21.928Z,27.90
2018-07-28T06:51:52.711Z,27.50
2018-07-28T06:56:53.366Z,27.00
2018-07-28T06:59:23.877Z,26.50
2018-07-28T07:01:54.676Z,26.50
2018-07-28T07:04:25.228Z,26.40
2018-07-28T07:06:55.808Z,26.30
2018-07-28T07:09:26.402Z,26.30
2018-07-28T07:11:56.818Z,26.10
2018-07-28T07:14:27.474Z,25.80
2018-07-28T07:16:57.939Z,25.80
2018-07-28T07:19:28.432Z,25.30
2018-07-28T07:21:59.229Z,24.70
2018-07-28T07:24:29.788Z,24.30
2018-07-28T07:27:00.401Z,24.10
2018-07-28T07:29:30.814Z,23.90
2018-07-28T07:32:01.217Z,23.70
2018-07-28T07:34:31.685Z,23.50
2018-07-28T07:37:02.309Z,23.10
2018-07-28T07:39:32.803Z,23.00
2018-07-28T07:42:03.264Z,22.80
2018-07-28T07:44:33.834Z,22.90
2018-07-28T07:47:04.308Z,23.00
2018-07-28T07:49:34.687Z,23.20
2018-07-28T07:52:05.781Z,23.20
2018-07-28T07:54:36.451Z,23.00
2018-07-28T07:57:08.006Z,22.90
2018-07-28T07:59:38.527Z,22.90
2018-07-28T08:02:09.183Z,22.60
2018-07-28T08:04:39.923Z,22.60
2018-07-28T08:07:10.371Z,22.50
2018-07-28T08:09:40.764Z,22.40
2018-07-28T08:12:11.231Z,22.30
2018-07-28T08:14:41.798Z,22.40
2018-07-28T08:19:42.396Z,22.40
2018-07-28T08:22:12.928Z,22.50
2018-07-28T08:24:43.488Z,22.40
2018-07-28T08:27:13.957Z,22.50
2018-07-28T08:29:44.539Z,22.40
2018-07-28T08:32:15.075Z,22.30
2018-07-28T08:34:45.719Z,22.10
2018-07-28T08:37:16.275Z,22.00
2018-07-28T08:39:47.261Z,21.70
2018-07-28T08:42:17.853Z,21.50
2018-07-28T08:44:48.579Z,21.30
2018-07-28T08:47:19.217Z,21.20
2018-07-28T08:49:49.836Z,21.10
2018-07-28T08:52:20.379Z,21.00
2018-07-28T08:54:50.935Z,21.00
2018-07-28T08:57:21.499Z,21.00
2018-07-28T08:59:51.955Z,21.10
2018-07-28T09:04:52.519Z,21.10
2018-07-28T09:07:23.291Z,21.10
2018-07-28T09:09:53.778Z,21.10
2018-07-28T09:12:24.353Z,21.10
2018-07-28T09:17:25.049Z,21.10
2018-07-28T09:19:55.709Z,21.20
2018-07-28T09:22:26.222Z,21.30
2018-07-28T09:24:56.875Z,21.40
2018-07-28T09:29:57.539Z,21.50
2018-07-28T09:32:27.991Z,21.60
2018-07-28T09:34:58.453Z,21.80
2018-07-28T09:37:29.077Z,22.10
2018-07-28T09:39:59.757Z,22.30
2018-07-28T09:42:30.360Z,22.60
2018-07-28T09:47:30.753Z,23.40
2018-07-28T09:50:01.165Z,23.50
2018-07-28T09:52:32.059Z,24.00
2018-07-28T09:55:02.625Z,24.20
2018-07-28T09:57:33.274Z,24.20
2018-07-28T10:00:03.795Z,24.30
2018-07-28T10:02:34.285Z,24.60
2018-07-28T10:05:04.735Z,25.20
2018-07-28T10:07:35.196Z,25.70
2018-07-28T10:10:05.882Z,26.40
2018-07-28T10:12:36.627Z,26.80
2018-07-28T10:15:07.275Z,27.80
2018-07-28T10:17:37.687Z,28.60
2018-07-28T10:20:08.311Z,29.30
2018-07-28T10:22:38.784Z,30.70
2018-07-28T10:25:09.652Z,30.70
2018-07-28T10:27:40.288Z,29.70
2018-07-28T10:30:10.880Z,28.60
2018-07-28T10:32:41.391Z,28.50
2018-07-28T10:35:12.919Z,29.80
2018-07-28T10:37:43.772Z,31.60
2018-07-28T10:40:14.186Z,31.70
2018-07-28T10:42:44.600Z,31.80
2018-07-28T10:45:15.111Z,31.60
2018-07-28T10:47:45.659Z,32.60
2018-07-28T10:52:46.517Z,30.20
2018-07-28T10:55:19.205Z,29.50
2018-07-28T10:57:53.309Z,29.40
2018-07-28T11:00:27.198Z,28.90
2018-07-28T11:03:11.095Z,28.20
2018-07-28T11:05:41.733Z,28.30
2018-07-28T11:08:12.195Z,29.00
2018-07-28T11:10:42.715Z,29.90
2018-07-28T11:13:13.316Z,31.90
2018-07-28T11:15:43.842Z,31.70
2018-07-28T11:18:14.715Z,30.70
2018-07-28T11:20:45.303Z,28.60
2018-07-28T11:23:31.026Z,28.20
2018-07-28T11:26:01.888Z,29.00
2018-07-28T11:28:32.231Z,29.20
2018-07-28T11:31:02.715Z,28.80
2018-07-28T11:33:49.498Z,28.40
2018-07-28T11:36:36.319Z,27.80
2018-07-28T11:39:23.225Z,27.20
2018-07-28T11:42:10.049Z,26.90
2018-07-28T11:45:00.571Z,26.60
2018-07-28T11:47:31.004Z,26.60
2018-07-28T11:50:01.340Z,26.60
2018-07-28T11:52:31.751Z,26.40
2018-07-28T11:55:02.256Z,26.40
2018-07-28T11:57:32.717Z,26.60
2018-07-28T12:00:03.301Z,26.50
2018-07-28T12:02:33.744Z,26.60
2018-07-28T12:05:04.363Z,26.60
2018-07-28T12:07:34.944Z,26.40
2018-07-28T12:10:07.351Z,26.20
2018-07-28T12:12:37.996Z,26.10
2018-07-28T12:15:08.990Z,26.20
2018-07-28T12:17:39.401Z,26.10
2018-07-28T12:20:10.080Z,26.10
2018-07-28T12:22:40.466Z,26.10
2018-07-28T12:25:11.116Z,25.90
2018-07-28T12:27:41.800Z,25.70
2018-07-28T12:30:12.546Z,25.80
2018-07-28T12:32:43.060Z,25.90
2018-07-28T12:35:13.614Z,25.60
2018-07-28T12:37:44.215Z,25.40
2018-07-28T12:40:14.779Z,25.40
2018-07-28T12:42:45.281Z,25.40
2018-07-28T12:45:15.662Z,25.30
2018-07-28T12:47:46.660Z,25.30
2018-07-28T12:50:17.189Z,25.20
2018-07-28T12:52:47.928Z,25.20
2018-07-28T12:55:18.814Z,25.10
2018-07-28T12:57:49.375Z,25.40
2018-07-28T13:00:19.979Z,25.50
2018-07-28T13:02:50.520Z,25.70
2018-07-28T13:05:20.949Z,25.90
2018-07-28T13:07:51.419Z,25.80
2018-07-28T13:10:21.909Z,25.70
2018-07-28T13:12:52.424Z,26.10
2018-07-28T13:15:22.855Z,26.20
2018-07-28T13:17:53.585Z,26.30
2018-07-28T13:20:23.980Z,26.40
2018-07-28T13:22:54.360Z,26.40
2018-07-28T13:25:25.040Z,26.40
2018-07-28T13:27:55.472Z,26.10
2018-07-28T13:30:25.997Z,26.20
2018-07-28T13:32:56.596Z,26.50
2018-07-28T13:35:27.249Z,26.70
2018-07-28T13:37:57.862Z,26.40
2018-07-28T13:40:28.371Z,26.50
2018-07-28T13:42:58.819Z,26.70
2018-07-28T13:45:29.420Z,26.50
2018-07-28T13:47:59.847Z,26.40
2018-07-28T13:50:30.373Z,26.50
2018-07-28T13:53:01.045Z,26.50
2018-07-28T13:55:31.455Z,26.40
2018-07-28T13:58:02.009Z,26.20
2018-07-28T14:00:32.482Z,26.30
2018-07-28T14:03:02.905Z,25.90
2018-07-28T14:05:33.329Z,25.80
2018-07-28T14:08:03.991Z,25.70
2018-07-28T14:10:34.419Z,25.90
2018-07-28T14:13:05.126Z,25.80
2018-07-28T14:15:35.719Z,25.60
2018-07-28T14:18:06.603Z,25.30
2018-07-28T14:20:37.239Z,25.10
2018-07-28T14:23:07.797Z,25.00
2018-07-28T14:25:38.330Z,24.90
2018-07-28T14:28:08.747Z,24.90
2018-07-28T14:30:39.259Z,24.80
2018-07-28T14:33:09.708Z,24.80
2018-07-28T14:35:40.307Z,24.80
2018-07-28T14:38:11.019Z,25.00
2018-07-28T14:40:41.675Z,25.00
2018-07-28T14:43:12.186Z,24.90
2018-07-28T14:45:42.574Z,25.00
2018-07-28T14:48:13.046Z,24.80
2018-07-28T14:50:43.686Z,24.90
2018-07-28T14:53:14.373Z,24.50
2018-07-28T14:55:44.924Z,24.60
2018-07-28T14:58:15.283Z,24.60
2018-07-28T15:00:45.962Z,24.70
2018-07-28T15:03:16.675Z,24.90
2018-07-28T15:05:47.156Z,24.80
2018-07-28T15:08:17.919Z,24.80
2018-07-28T15:10:48.454Z,25.00
2018-07-28T15:13:19.308Z,25.20
2018-07-28T15:15:50.104Z,25.20
2018-07-28T15:18:20.500Z,25.10
2018-07-28T15:20:51.152Z,25.20
2018-07-28T15:23:21.596Z,25.20
2018-07-28T15:25:52.137Z,25.30
2018-07-28T15:28:22.553Z,25.50
2018-07-28T15:30:54.576Z,25.50
2018-07-28T15:33:24.957Z,25.30
2018-07-28T15:35:55.879Z,25.20
2018-07-28T15:38:26.556Z,25.00
2018-07-28T15:40:57.178Z,24.90
2018-07-28T15:43:27.820Z,24.60
2018-07-28T15:45:58.405Z,24.60
2018-07-28T15:48:28.820Z,24.40
2018-07-28T15:50:59.377Z,24.40
2018-07-28T15:53:29.871Z,24.30
2018-07-28T15:56:00.688Z,24.20
2018-07-28T15:58:31.100Z,24.10
2018-07-28T16:01:01.539Z,24.00
2018-07-28T16:03:31.937Z,24.00
2018-07-28T16:06:02.781Z,24.00
2018-07-28T16:08:33.364Z,23.90
2018-07-28T16:11:04.125Z,23.80
2018-07-28T16:13:34.705Z,23.80
2018-07-28T16:16:05.115Z,23.80
2018-07-28T16:18:35.600Z,23.80
2018-07-28T16:21:06.013Z,23.70
2018-07-28T16:23:36.549Z,23.60
2018-07-28T16:26:07.785Z,23.50
2018-07-28T16:28:38.243Z,23.40
2018-07-28T16:31:08.991Z,23.30
2018-07-28T16:33:39.427Z,23.20
2018-07-28T16:36:09.963Z,23.10
2018-07-28T16:38:40.600Z,23.00
2018-07-28T16:41:11.036Z,23.00
2018-07-28T16:43:41.491Z,23.00
2018-07-28T16:46:11.997Z,23.00
2018-07-28T16:48:42.470Z,22.90
2018-07-28T16:51:12.941Z,22.80
2018-07-28T16:53:43.476Z,22.70
2018-07-28T16:56:14.075Z,22.60
2018-07-28T16:58:44.595Z,22.50
2018-07-28T17:01:15.115Z,22.50
2018-07-28T17:03:45.644Z,22.50
2018-07-28T17:06:16.233Z,22.60
2018-07-28T17:08:46.687Z,22.60
2018-07-28T17:11:17.296Z,22.80
2018-07-28T17:13:47.952Z,22.70
2018-07-28T17:16:18.402Z,22.70
2018-07-28T17:18:49.067Z,22.70
2018-07-28T17:21:19.739Z,22.70
2018-07-28T17:23:50.184Z,22.70
2018-07-28T17:26:20.909Z,22.70
2018-07-28T17:28:51.642Z,22.80
2018-07-28T17:31:22.180Z,22.80
2018-07-28T17:36:22.801Z,22.80
2018-07-28T17:38:53.632Z,22.90
2018-07-28T17:41:24.169Z,22.90
2018-07-28T17:46:24.805Z,22.80
2018-07-28T17:48:55.776Z,22.90
2018-07-28T17:51:26.188Z,22.90
2018-07-28T17:53:56.753Z,22.80
2018-07-28T17:56:27.288Z,22.80
2018-07-28T17:58:57.778Z,22.80
2018-07-28T18:01:28.391Z,22.80
2018-07-28T18:03:58.922Z,22.80
2018-07-28T18:06:29.419Z,22.80
2018-07-28T18:09:00.097Z,22.90
2018-07-28T18:11:30.488Z,22.90
2018-07-28T18:14:01.035Z,22.80
2018-07-28T18:16:31.985Z,22.80
2018-07-28T18:19:02.723Z,22.90
2018-07-28T18:21:33.388Z,22.80
2018-07-28T18:24:04.045Z,22.80
2018-07-28T18:26:34.787Z,22.70
2018-07-28T18:29:05.411Z,22.60
2018-07-28T18:31:35.927Z,22.60
2018-07-28T18:34:06.588Z,22.70
2018-07-28T18:36:37.137Z,22.60
2018-07-28T18:39:10.708Z,22.60
2018-07-28T18:41:41.375Z,22.60
2018-07-28T18:44:11.877Z,22.50
2018-07-28T18:46:42.631Z,22.60
2018-07-28T18:49:13.272Z,22.50
2018-07-28T18:51:43.920Z,22.50
2018-07-28T18:54:14.433Z,22.40
2018-07-28T18:56:45.087Z,22.40
2018-07-28T18:59:15.569Z,22.30
2018-07-28T19:01:46.344Z,22.20
2018-07-28T19:04:16.868Z,22.10
2018-07-28T19:06:47.379Z,22.00
2018-07-28T19:09:22.931Z,22.00
2018-07-28T19:11:53.398Z,21.90
2018-07-28T19:14:29.050Z,21.80
2018-07-28T19:16:59.577Z,21.80
2018-07-28T19:19:30.045Z,21.80
2018-07-28T19:24:30.783Z,21.70
2018-07-28T19:27:01.555Z,21.70
2018-07-28T19:29:36.935Z,21.70
2018-07-28T19:32:07.306Z,21.60
2018-07-28T19:34:37.855Z,21.60
2018-07-28T19:37:13.447Z,21.40
2018-07-28T19:39:43.874Z,21.30
2018-07-28T19:42:19.397Z,21.20
2018-07-28T19:44:50.164Z,21.20
2018-07-28T19:47:20.822Z,21.10
2018-07-28T19:49:51.442Z,21.00
2018-07-28T19:52:22.318Z,20.90
2018-07-28T19:57:23.103Z,20.80
2018-07-28T19:59:53.631Z,20.60
2018-07-28T20:02:24.128Z,20.50
2018-07-28T20:04:54.631Z,20.50
2018-07-28T20:07:25.245Z,20.40
2018-07-28T20:09:55.803Z,20.30
2018-07-28T20:12:26.248Z,20.20
2018-07-28T20:14:56.844Z,20.10
2018-07-28T20:17:27.640Z,20.00
2018-07-28T20:19:58.124Z,19.90
2018-07-28T20:22:28.477Z,19.80
2018-07-28T20:24:58.956Z,19.70
2018-07-28T20:27:29.577Z,19.60
2018-07-28T20:30:00.051Z,19.60
2018-07-28T20:32:30.616Z,19.60
2018-07-28T20:37:31.203Z,19.40
2018-07-28T20:40:01.796Z,19.40
2018-07-28T20:42:32.367Z,19.40
2018-07-28T20:45:02.877Z,19.60
2018-07-28T20:47:33.512Z,19.60
2018-07-28T20:50:04.001Z,19.50
2018-07-28T20:52:34.503Z,19.40
2018-07-28T20:55:05.042Z,19.40
2018-07-28T20:57:35.676Z,19.30
2018-07-28T21:00:06.182Z,19.20
2018-07-28T21:02:36.663Z,19.20
2018-07-28T21:05:07.297Z,19.10
2018-07-28T21:07:37.892Z,19.10
2018-07-28T21:10:08.480Z,19.00
2018-07-28T21:12:38.983Z,18.90
2018-07-28T21:15:09.384Z,18.80
2018-07-28T21:17:40.150Z,18.70
2018-07-28T21:20:10.554Z,18.70
2018-07-28T21:22:41.137Z,18.60
2018-07-28T21:25:11.848Z,18.60
2018-07-28T21:27:42.409Z,18.50
2018-07-28T21:30:12.848Z,18.50
2018-07-28T21:32:43.355Z,18.50
2018-07-28T21:35:14.088Z,18.40
2018-07-28T21:37:45.653Z,18.40
2018-07-28T21:40:16.238Z,18.40
2018-07-28T21:42:46.880Z,18.40
2018-07-28T21:45:17.515Z,18.30
2018-07-28T21:47:47.981Z,18.30
2018-07-28T21:50:18.937Z,18.30
2018-07-28T21:52:49.527Z,18.30
2018-07-28T21:55:20.360Z,18.20
2018-07-28T21:57:50.918Z,18.10
2018-07-28T22:00:21.489Z,18.10
2018-07-28T22:02:51.960Z,18.10
2018-07-28T22:05:22.339Z,18.00
2018-07-28T22:07:52.823Z,18.00
2018-07-28T22:10:23.453Z,18.00
2018-07-28T22:12:53.969Z,17.90
2018-07-28T22:15:24.457Z,17.90
2018-07-28T22:17:55.012Z,18.00
2018-07-28T22:20:25.433Z,17.90
2018-07-28T22:22:55.873Z,17.90
2018-07-28T22:25:26.561Z,17.90
2018-07-28T22:27:57.243Z,17.90
2018-07-28T22:30:27.776Z,17.90
2018-07-28T22:32:58.455Z,17.80
2018-07-28T22:35:28.884Z,17.80
2018-07-28T22:37:59.412Z,17.70
2018-07-28T22:40:29.876Z,17.60
2018-07-28T22:43:00.425Z,17.60
2018-07-28T22:45:30.916Z,17.50
2018-07-28T22:48:01.512Z,17.50
2018-07-28T22:50:32.200Z,17.50
2018-07-28T22:53:02.922Z,17.40
2018-07-28T22:55:33.493Z,17.30
2018-07-28T22:58:04.066Z,17.20
2018-07-28T23:00:34.828Z,17.10
2018-07-28T23:03:05.272Z,17.00
2018-07-28T23:05:35.783Z,16.90
2018-07-28T23:08:06.419Z,17.00
2018-07-28T23:10:36.944Z,17.10
2018-07-28T23:13:07.703Z,17.10
2018-07-28T23:15:38.273Z,17.00
2018-07-28T23:18:08.735Z,17.00
2018-07-28T23:20:39.156Z,17.00
2018-07-28T23:23:09.756Z,17.00
2018-07-28T23:25:40.207Z,17.10
2018-07-28T23:30:40.864Z,17.10
2018-07-28T23:33:11.378Z,17.10
2018-07-28T23:35:41.916Z,17.20
2018-07-28T23:38:12.436Z,17.20
2018-07-28T23:40:43.267Z,17.20
2018-07-28T23:45:43.930Z,17.10
2018-07-28T23:48:15.512Z,17.10
2018-07-28T23:50:46.096Z,17.10
2018-07-28T23:53:16.916Z,17.10
2018-07-28T23:55:47.720Z,17.10
2018-07-28T23:58:18.368Z,17.10
